createdAt,value
2019-03-21T00:00:25.899Z,36.20
2019-03-21T00:01:25.930Z,32.80
2019-03-21T00:02:25.862Z,36.00
2019-03-21T00:03:25.941Z,35.60
2019-03-21T00:04:25.920Z,34.80
2019-03-21T00:05:25.958Z,33.20
2019-03-21T00:06:25.820Z,40.90
2019-03-21T00:07:25.862Z,35.20
2019-03-21T00:08:25.817Z,31.90
2019-03-21T00:09:25.901Z,37.00
2019-03-21T00:10:25.806Z,35.70
2019-03-21T00:11:25.898Z,32.70
2019-03-21T00:12:25.763Z,35.90
2019-03-21T00:13:25.813Z,39.20
2019-03-21T00:14:25.773Z,33.60
2019-03-21T00:15:25.830Z,33.70
2019-03-21T00:16:25.728Z,36.40
2019-03-21T00:17:25.842Z,35.30
2019-03-21T00:18:25.737Z,36.20
2019-03-21T00:19:25.768Z,35.30
2019-03-21T00:20:25.667Z,34.30
2019-03-21T00:21:25.754Z,33.40
2019-03-21T00:22:25.667Z,34.50
2019-03-21T00:23:25.679Z,35.90
2019-03-21T00:24:25.618Z,36.30
2019-03-21T00:25:25.699Z,30.40
2019-03-21T00:26:25.612Z,35.90
2019-03-21T00:27:25.705Z,35.80
2019-03-21T00:28:25.577Z,35.20
2019-03-21T00:29:25.614Z,35.00
2019-03-21T00:30:25.584Z,39.40
2019-03-21T00:31:25.630Z,36.50
2019-03-21T00:32:25.545Z,35.10
2019-03-21T00:33:25.632Z,33.70
2019-03-21T00:34:25.518Z,37.30
2019-03-21T00:35:25.569Z,37.40
2019-03-21T00:36:25.499Z,39.50
2019-03-21T00:37:25.576Z,39.10
2019-03-21T00:38:25.476Z,37.70
2019-03-21T00:39:32.663Z,39.30
2019-03-21T00:40:26.468Z,36.50
2019-03-21T00:41:25.477Z,38.10
2019-03-21T00:42:25.423Z,42.50
2019-03-21T00:44:26.542Z,36.40
2019-03-21T00:45:25.535Z,36.70
2019-03-21T00:46:25.376Z,36.40
2019-03-21T00:47:25.433Z,36.40
2019-03-21T00:48:25.367Z,32.50
2019-03-21T00:49:25.452Z,38.10
2019-03-21T00:50:25.354Z,37.00
2019-03-21T00:51:25.373Z,39.00
2019-03-21T00:52:25.315Z,34.80
2019-03-21T00:54:26.418Z,37.40
2019-03-21T00:55:25.372Z,37.70
2019-03-21T00:56:25.295Z,39.40
2019-03-21T00:57:25.282Z,35.00
2019-03-21T00:58:25.251Z,40.90
2019-03-21T00:59:25.322Z,44.60
2019-03-21T01:00:25.226Z,39.20
2019-03-21T01:01:25.340Z,35.00
2019-03-21T01:02:25.201Z,36.90
2019-03-21T01:03:25.228Z,39.50
2019-03-21T01:04:25.200Z,36.30
2019-03-21T01:05:25.237Z,38.10
2019-03-21T01:06:25.211Z,40.10
2019-03-21T01:07:25.259Z,41.80
2019-03-21T01:08:25.150Z,43.90
2019-03-21T01:09:25.173Z,41.80
2019-03-21T01:10:25.107Z,44.40
2019-03-21T01:11:25.202Z,42.10
2019-03-21T01:12:25.086Z,40.80
2019-03-21T01:13:25.190Z,41.30
2019-03-21T01:14:29.676Z,41.40
2019-03-21T01:15:26.075Z,41.90
2019-03-21T01:16:25.092Z,37.40
2019-03-21T01:17:25.038Z,39.70
2019-03-21T01:18:25.053Z,37.90
2019-03-21T01:19:25.135Z,42.00
2019-03-21T01:20:25.054Z,41.00
2019-03-21T01:21:25.075Z,40.80
2019-03-21T01:22:25.005Z,39.50
2019-03-21T01:23:25.076Z,39.20
2019-03-21T01:24:24.960Z,43.10
2019-03-21T01:25:25.070Z,42.30
2019-03-21T01:26:24.929Z,46.90
2019-03-21T01:27:25.008Z,47.90
2019-03-21T01:28:24.922Z,39.30
2019-03-21T01:29:25.002Z,41.30
2019-03-21T01:30:24.897Z,41.70
2019-03-21T01:31:25.956Z,44.60
2019-03-21T01:32:24.866Z,43.70
2019-03-21T01:33:24.933Z,43.20
2019-03-21T01:34:24.851Z,41.60
2019-03-21T01:35:24.889Z,45.90
2019-03-21T01:36:24.853Z,41.00
2019-03-21T01:37:24.875Z,45.50
2019-03-21T01:38:24.806Z,45.10
2019-03-21T01:39:24.862Z,42.60
2019-03-21T01:40:24.791Z,44.90
2019-03-21T01:41:24.883Z,43.30
2019-03-21T01:42:24.792Z,42.40
2019-03-21T01:43:24.801Z,42.30
2019-03-21T01:44:24.752Z,40.00
2019-03-21T01:45:24.797Z,49.00
2019-03-21T01:46:24.721Z,45.80
2019-03-21T01:47:24.845Z,40.20
2019-03-21T01:48:24.693Z,48.20
2019-03-21T01:49:24.722Z,43.10
2019-03-21T01:50:24.677Z,42.20
2019-03-21T01:51:24.765Z,42.10
2019-03-21T01:52:24.675Z,45.50
2019-03-21T01:53:24.751Z,40.20
2019-03-21T01:54:24.624Z,41.70
2019-03-21T01:55:24.666Z,40.90
2019-03-21T01:56:24.606Z,42.60
2019-03-21T01:57:25.728Z,41.50
2019-03-21T01:58:24.581Z,40.80
2019-03-21T01:59:24.688Z,39.90
2019-03-21T02:00:24.577Z,44.50
2019-03-21T02:01:24.603Z,45.10
2019-03-21T02:02:24.571Z,42.70
2019-03-21T02:03:24.618Z,37.40
2019-03-21T02:04:24.511Z,40.10
2019-03-21T02:05:24.533Z,38.00
2019-03-21T02:06:24.494Z,41.40
2019-03-21T02:07:24.575Z,43.20
2019-03-21T02:08:24.511Z,44.20
2019-03-21T02:09:24.562Z,47.10
2019-03-21T02:10:24.490Z,45.00
2019-03-21T02:11:24.483Z,38.40
2019-03-21T02:12:24.520Z,47.30
2019-03-21T02:13:24.480Z,43.40
2019-03-21T02:14:24.415Z,42.20
2019-03-21T02:15:25.049Z,45.30
2019-03-21T02:16:24.419Z,47.20
2019-03-21T02:17:24.415Z,47.20
2019-03-21T02:18:24.404Z,49.60
2019-03-21T02:19:24.424Z,44.00
2019-03-21T02:20:24.354Z,42.80
2019-03-21T02:21:24.449Z,48.00
2019-03-21T02:22:24.317Z,48.00
2019-03-21T02:23:24.394Z,47.30
2019-03-21T02:24:24.338Z,47.10
2019-03-21T02:25:24.373Z,43.30
2019-03-21T02:26:24.290Z,43.10
2019-03-21T02:28:25.370Z,44.70
2019-03-21T02:29:25.340Z,44.40
2019-03-21T02:30:24.232Z,43.40
2019-03-21T02:31:24.297Z,43.00
2019-03-21T02:32:24.214Z,42.50
2019-03-21T02:33:24.380Z,42.80
2019-03-21T02:34:24.222Z,46.20
2019-03-21T02:35:24.233Z,41.90
2019-03-21T02:36:24.204Z,45.20
2019-03-21T02:37:24.249Z,43.70
2019-03-21T02:38:24.146Z,47.00
2019-03-21T02:39:24.194Z,43.40
2019-03-21T02:40:24.122Z,39.90
2019-03-21T02:41:25.695Z,38.50
2019-03-21T02:42:24.101Z,35.00
2019-03-21T02:43:24.187Z,37.50
2019-03-21T02:44:24.120Z,38.00
2019-03-21T02:45:24.095Z,38.70
2019-03-21T02:46:24.049Z,39.60
2019-03-21T02:47:24.104Z,36.70
2019-03-21T02:48:24.030Z,34.00
2019-03-21T02:49:24.104Z,36.20
2019-03-21T02:50:24.022Z,36.70
2019-03-21T02:51:24.022Z,37.00
2019-03-21T02:52:23.990Z,35.20
2019-03-21T02:53:24.048Z,33.70
2019-03-21T02:54:23.996Z,38.00
2019-03-21T02:56:25.090Z,32.20
2019-03-21T02:58:25.052Z,31.30
2019-03-21T02:59:24.009Z,35.20
2019-03-21T03:00:23.896Z,35.80
2019-03-21T03:01:23.991Z,31.70
2019-03-21T03:02:23.889Z,34.00
2019-03-21T03:03:23.912Z,34.70
2019-03-21T03:04:23.879Z,33.90
2019-03-21T03:05:23.931Z,34.00
2019-03-21T03:06:23.881Z,34.30
2019-03-21T03:07:23.936Z,32.10
2019-03-21T03:08:23.812Z,43.50
2019-03-21T03:09:23.829Z,36.40
2019-03-21T03:10:23.783Z,34.40
2019-03-21T03:11:23.863Z,35.40
2019-03-21T03:12:23.770Z,37.00
2019-03-21T03:14:24.895Z,30.80
2019-03-21T03:15:23.803Z,35.30
2019-03-21T03:16:23.734Z,36.40
2019-03-21T03:17:23.802Z,34.70
2019-03-21T03:18:23.705Z,35.10
2019-03-21T03:19:23.748Z,39.80
2019-03-21T03:20:23.671Z,36.30
2019-03-21T03:21:23.739Z,32.30
2019-03-21T03:22:23.665Z,37.90
2019-03-21T03:23:23.801Z,33.80
2019-03-21T03:24:23.672Z,31.40
2019-03-21T03:25:23.673Z,35.30
2019-03-21T03:26:23.622Z,39.30
2019-03-21T03:27:23.666Z,33.90
2019-03-21T03:28:23.586Z,36.70
2019-03-21T03:29:23.680Z,34.60
2019-03-21T03:30:23.591Z,34.50
2019-03-21T03:31:23.572Z,32.80
2019-03-21T03:32:23.593Z,34.10
2019-03-21T03:33:23.607Z,34.30
2019-03-21T03:34:23.538Z,34.10
2019-03-21T03:35:23.650Z,36.50
2019-03-21T03:36:23.512Z,36.70
2019-03-21T03:37:23.530Z,37.40
2019-03-21T03:38:23.487Z,32.90
2019-03-21T03:39:23.546Z,34.10
2019-03-21T03:40:23.481Z,32.30
2019-03-21T03:41:23.560Z,33.10
2019-03-21T03:42:23.473Z,38.10
2019-03-21T03:43:23.472Z,32.80
2019-03-21T03:44:23.420Z,35.60
2019-03-21T03:45:36.641Z,32.40
2019-03-21T03:46:24.431Z,40.40
2019-03-21T03:47:23.397Z,32.30
2019-03-21T03:48:23.373Z,31.90
2019-03-21T03:49:23.415Z,37.60
2019-03-21T03:50:23.382Z,31.80
2019-03-21T03:51:23.428Z,33.30
2019-03-21T03:52:23.324Z,34.50
2019-03-21T03:53:23.352Z,38.30
2019-03-21T03:54:23.301Z,29.40
2019-03-21T03:55:23.362Z,32.10
2019-03-21T03:56:23.315Z,36.20
2019-03-21T03:57:23.308Z,31.20
2019-03-21T03:58:23.269Z,31.40
2019-03-21T03:59:23.280Z,35.10
2019-03-21T04:00:23.243Z,33.90
2019-03-21T04:01:23.336Z,38.50
2019-03-21T04:02:23.222Z,35.10
2019-03-21T04:03:23.308Z,34.80
2019-03-21T04:04:23.201Z,36.30
2019-03-21T04:05:23.216Z,37.50
2019-03-21T04:06:23.190Z,38.60
2019-03-21T04:07:23.232Z,33.90
2019-03-21T04:08:23.149Z,34.50
2019-03-21T04:09:23.254Z,35.10
2019-03-21T04:10:23.182Z,30.90
2019-03-21T04:11:24.205Z,35.00
2019-03-21T04:12:23.096Z,33.80
2019-03-21T04:14:24.198Z,37.50
2019-03-21T04:15:23.183Z,39.20
2019-03-21T04:16:23.090Z,37.40
2019-03-21T04:17:23.138Z,36.50
2019-03-21T04:18:23.053Z,35.00
2019-03-21T04:19:23.109Z,38.00
2019-03-21T04:20:23.006Z,35.40
2019-03-21T04:21:23.199Z,36.10
2019-03-21T04:22:22.995Z,37.40
2019-03-21T04:23:23.045Z,39.30
2019-03-21T04:24:22.962Z,38.90
2019-03-21T04:25:23.067Z,39.50
2019-03-21T04:26:22.987Z,42.80
2019-03-21T04:27:22.967Z,41.10
2019-03-21T04:28:22.939Z,42.50
2019-03-21T04:29:22.991Z,43.00
2019-03-21T04:30:22.900Z,40.10
2019-03-21T04:31:22.999Z,41.60
2019-03-21T04:32:22.915Z,43.10
2019-03-21T04:33:23.198Z,38.40
2019-03-21T04:34:22.860Z,43.30
2019-03-21T04:35:22.913Z,41.40
2019-03-21T04:36:22.849Z,41.40
2019-03-21T04:37:23.069Z,39.20
2019-03-21T04:38:22.830Z,35.80
2019-03-21T04:39:22.839Z,35.70
2019-03-21T04:40:22.810Z,39.00
2019-03-21T04:42:44.771Z,35.80
2019-03-21T04:43:22.757Z,35.90
2019-03-21T04:44:22.869Z,37.10
2019-03-21T04:45:22.739Z,35.10
2019-03-21T04:46:22.797Z,39.70
2019-03-21T04:47:22.747Z,34.40
2019-03-21T04:48:22.820Z,34.80
2019-03-21T04:49:22.711Z,34.30
2019-03-21T04:50:22.709Z,34.90
2019-03-21T04:51:22.663Z,34.20
2019-03-21T04:52:22.719Z,33.70
2019-03-21T04:53:22.682Z,37.20
2019-03-21T04:54:22.650Z,35.20
2019-03-21T04:55:22.650Z,37.20
2019-03-21T04:56:22.626Z,38.80
2019-03-21T04:57:22.637Z,40.20
2019-03-21T04:58:22.690Z,34.30
2019-03-21T04:59:22.591Z,43.50
2019-03-21T05:00:22.684Z,36.80
2019-03-21T05:01:22.564Z,40.40
2019-03-21T05:02:22.601Z,40.40
2019-03-21T05:03:22.562Z,41.00
2019-03-21T05:04:22.602Z,36.40
2019-03-21T05:05:22.513Z,40.10
2019-03-21T05:06:22.508Z,38.70
2019-03-21T05:07:22.493Z,35.90
2019-03-21T05:08:22.563Z,40.20
2019-03-21T05:09:22.483Z,34.80
2019-03-21T05:10:22.471Z,37.90
2019-03-21T05:11:22.451Z,34.90
2019-03-21T05:12:22.590Z,36.40
2019-03-21T05:13:22.465Z,36.90
2019-03-21T05:14:22.465Z,38.10
2019-03-21T05:15:22.410Z,36.60
2019-03-21T05:16:22.475Z,39.60
2019-03-21T05:17:22.391Z,39.00
2019-03-21T05:18:22.531Z,39.00
2019-03-21T05:19:22.376Z,36.10
2019-03-21T05:20:22.422Z,40.50
2019-03-21T05:21:22.353Z,38.10
2019-03-21T05:22:22.419Z,34.80
2019-03-21T05:23:22.352Z,35.90
2019-03-21T05:24:22.436Z,38.20
2019-03-21T05:25:22.293Z,39.00
2019-03-21T05:26:22.361Z,36.60
2019-03-21T05:27:22.292Z,35.70
2019-03-21T05:28:22.389Z,41.90
2019-03-21T05:29:22.271Z,40.30
2019-03-21T05:30:22.275Z,39.70
2019-03-21T05:31:22.648Z,42.00
2019-03-21T05:32:22.287Z,45.80
2019-03-21T05:33:22.232Z,37.10
2019-03-21T05:34:22.360Z,37.70
2019-03-21T05:35:22.185Z,41.40
2019-03-21T05:36:22.221Z,35.40
2019-03-21T05:37:22.182Z,36.70
2019-03-21T05:38:22.421Z,42.40
2019-03-21T05:39:22.216Z,42.90
2019-03-21T05:40:22.245Z,42.70
2019-03-21T05:41:22.644Z,39.60
2019-03-21T05:42:22.158Z,40.10
2019-03-21T05:43:22.101Z,39.60
2019-03-21T05:44:22.195Z,37.60
2019-03-21T05:45:22.080Z,38.90
2019-03-21T05:46:26.933Z,43.00
2019-03-21T05:47:23.047Z,45.40
2019-03-21T05:48:22.087Z,37.60
2019-03-21T05:49:22.063Z,38.00
2019-03-21T05:50:22.103Z,41.20
2019-03-21T05:51:22.024Z,39.40
2019-03-21T05:52:22.139Z,40.10
2019-03-21T05:53:22.004Z,42.30
2019-03-21T05:54:22.272Z,43.60
2019-03-21T05:55:21.998Z,42.30
2019-03-21T05:56:22.450Z,44.90
2019-03-21T05:57:21.967Z,46.50
2019-03-21T05:59:23.071Z,44.00
2019-03-21T06:01:23.049Z,43.80
2019-03-21T06:02:23.929Z,45.20
2019-03-21T06:03:21.880Z,44.20
2019-03-21T06:04:22.846Z,44.20
2019-03-21T06:05:21.862Z,44.40
2019-03-21T06:07:22.956Z,46.40
2019-03-21T06:09:23.055Z,41.30
2019-03-21T06:10:23.096Z,42.40
2019-03-21T06:11:21.787Z,44.10
2019-03-21T06:13:22.929Z,41.30
2019-03-21T06:15:22.897Z,45.30
2019-03-21T06:16:23.725Z,47.20
2019-03-21T06:17:21.729Z,43.40
2019-03-21T06:18:23.937Z,45.30
2019-03-21T06:19:21.695Z,44.20
2019-03-21T06:20:24.089Z,43.70
2019-03-21T06:21:21.674Z,42.50
2019-03-21T06:22:24.068Z,46.10
2019-03-21T06:23:21.646Z,49.80
2019-03-21T06:24:24.183Z,49.10
2019-03-21T06:25:21.668Z,47.00
2019-03-21T06:26:24.346Z,43.30
2019-03-21T06:27:21.608Z,41.10
2019-03-21T06:28:24.533Z,41.20
2019-03-21T06:29:21.588Z,44.50
2019-03-21T06:30:25.075Z,46.40
2019-03-21T06:31:21.587Z,48.10
2019-03-21T06:33:22.670Z,42.30
2019-03-21T06:35:22.709Z,44.60
2019-03-21T06:37:22.640Z,43.50
2019-03-21T06:38:25.095Z,47.80
2019-03-21T06:39:21.467Z,45.90
2019-03-21T06:40:25.355Z,39.50
2019-03-21T06:41:21.468Z,42.00
2019-03-21T06:43:21.452Z,43.00
2019-03-21T06:44:25.247Z,41.20
2019-03-21T06:45:21.404Z,44.40
2019-03-21T06:46:23.456Z,43.10
2019-03-21T06:47:21.388Z,41.40
2019-03-21T06:48:23.533Z,41.90
2019-03-21T06:49:21.377Z,42.90
2019-03-21T06:50:21.398Z,39.50
2019-03-21T06:51:21.385Z,40.60
2019-03-21T06:52:21.406Z,45.10
2019-03-21T06:53:21.317Z,41.30
2019-03-21T06:54:21.416Z,43.70
2019-03-21T06:55:21.292Z,44.50
2019-03-21T06:56:21.367Z,49.00
2019-03-21T06:57:21.278Z,46.20
2019-03-21T06:58:21.346Z,40.10
2019-03-21T06:59:21.246Z,41.60
2019-03-21T07:00:21.374Z,43.00
2019-03-21T07:01:21.258Z,41.40
2019-03-21T07:02:21.308Z,44.20
2019-03-21T07:03:21.206Z,44.00
2019-03-21T07:04:21.297Z,44.00
2019-03-21T07:05:21.181Z,42.40
2019-03-21T07:06:21.224Z,42.00
2019-03-21T07:07:21.184Z,39.90
2019-03-21T07:08:21.211Z,44.90
2019-03-21T07:09:21.142Z,40.20
2019-03-21T07:10:21.225Z,43.80
2019-03-21T07:11:21.120Z,40.80
2019-03-21T07:12:21.181Z,35.90
2019-03-21T07:13:21.100Z,42.50
2019-03-21T07:14:21.153Z,43.70
2019-03-21T07:15:21.072Z,44.90
2019-03-21T07:16:21.171Z,41.00
2019-03-21T07:17:23.005Z,39.10
2019-03-21T07:18:21.105Z,42.10
2019-03-21T07:19:21.048Z,45.40
2019-03-21T07:20:21.108Z,40.80
2019-03-21T07:21:21.017Z,45.60
2019-03-21T07:22:21.164Z,39.40
2019-03-21T07:23:20.985Z,43.80
2019-03-21T07:24:21.012Z,39.40
2019-03-21T07:25:20.972Z,43.00
2019-03-21T07:26:21.052Z,43.10
2019-03-21T07:27:20.969Z,44.10
2019-03-21T07:28:21.042Z,40.30
2019-03-21T07:29:20.931Z,40.90
2019-03-21T07:30:20.955Z,38.70
2019-03-21T07:31:20.903Z,42.40
2019-03-21T07:32:21.002Z,41.30
2019-03-21T07:33:20.895Z,41.40
2019-03-21T07:34:20.990Z,44.70
2019-03-21T07:35:20.856Z,43.70
2019-03-21T07:36:20.894Z,41.20
2019-03-21T07:37:20.865Z,42.30
2019-03-21T07:38:20.840Z,40.30
2019-03-21T07:39:20.815Z,44.40
2019-03-21T07:40:20.812Z,42.20
2019-03-21T07:41:20.826Z,39.10
2019-03-21T07:42:20.835Z,43.50
2019-03-21T07:43:22.308Z,40.90
2019-03-21T07:44:20.845Z,41.30
2019-03-21T07:45:20.745Z,42.80
2019-03-21T07:46:20.760Z,43.60
2019-03-21T07:47:20.730Z,40.90
2019-03-21T07:48:20.810Z,45.30
2019-03-21T07:49:20.726Z,42.50
2019-03-21T07:50:20.788Z,48.60
2019-03-21T07:51:20.682Z,44.60
2019-03-21T07:52:20.735Z,46.10
2019-03-21T07:53:22.151Z,42.10
2019-03-21T07:54:20.748Z,39.20
2019-03-21T07:55:20.632Z,42.70
2019-03-21T07:56:20.735Z,41.20
2019-03-21T07:57:20.608Z,41.70
2019-03-21T07:58:20.668Z,45.70
2019-03-21T07:59:20.592Z,42.60
2019-03-21T08:00:20.693Z,44.60
2019-03-21T08:01:20.606Z,42.20
2019-03-21T08:02:20.693Z,41.60
2019-03-21T08:03:20.639Z,41.90
2019-03-21T08:04:20.542Z,42.50
2019-03-21T08:05:20.520Z,42.30
2019-03-21T08:06:20.594Z,43.90
2019-03-21T08:07:20.500Z,41.40
2019-03-21T08:08:20.606Z,42.00
2019-03-21T08:09:20.526Z,46.90
2019-03-21T08:10:20.530Z,43.20
2019-03-21T08:11:20.452Z,42.30
2019-03-21T08:12:20.537Z,39.70
2019-03-21T08:13:20.434Z,41.90
2019-03-21T08:14:20.585Z,42.50
2019-03-21T08:15:20.437Z,43.70
2019-03-21T08:16:20.467Z,42.60
2019-03-21T08:17:20.389Z,43.00
2019-03-21T08:18:20.515Z,40.60
2019-03-21T08:19:20.406Z,41.70
2019-03-21T08:20:20.380Z,39.70
2019-03-21T08:21:20.353Z,38.80
2019-03-21T08:22:20.399Z,42.70
2019-03-21T08:23:20.325Z,44.30
2019-03-21T08:24:20.410Z,41.00
2019-03-21T08:25:20.462Z,40.30
2019-03-21T08:26:20.322Z,37.80
2019-03-21T08:27:20.350Z,38.10
2019-03-21T08:28:20.337Z,40.10
2019-03-21T08:29:20.269Z,37.10
2019-03-21T08:30:20.382Z,38.80
2019-03-21T08:31:20.243Z,35.30
2019-03-21T08:32:20.267Z,39.30
2019-03-21T08:33:20.220Z,41.60
2019-03-21T08:34:20.268Z,37.70
2019-03-21T08:35:20.218Z,39.50
2019-03-21T08:36:20.287Z,38.30
2019-03-21T08:37:20.177Z,39.50
2019-03-21T08:38:20.206Z,41.40
2019-03-21T08:39:20.160Z,39.50
2019-03-21T08:40:20.251Z,38.40
2019-03-21T08:41:20.123Z,37.90
2019-03-21T08:42:20.241Z,36.60
2019-03-21T08:43:20.153Z,38.40
2019-03-21T08:44:20.179Z,36.90
2019-03-21T08:45:20.145Z,36.30
2019-03-21T08:46:20.148Z,37.30
2019-03-21T08:47:20.064Z,38.50
2019-03-21T08:48:20.167Z,39.80
2019-03-21T08:49:20.038Z,36.70
2019-03-21T08:50:20.114Z,37.60
2019-03-21T08:51:20.010Z,39.80
2019-03-21T08:52:20.096Z,38.50
2019-03-21T08:53:19.992Z,36.70
2019-03-21T08:54:20.013Z,40.60
2019-03-21T08:55:20.003Z,37.00
2019-03-21T08:56:20.160Z,35.90
2019-03-21T08:57:19.956Z,39.80
2019-03-21T08:58:20.031Z,38.80
2019-03-21T08:59:19.927Z,36.90
2019-03-21T09:00:19.981Z,35.30
2019-03-21T09:01:19.907Z,36.70
2019-03-21T09:02:19.972Z,38.30
2019-03-21T09:03:19.892Z,39.20
2019-03-21T09:04:19.971Z,34.70
2019-03-21T09:05:19.921Z,37.70
2019-03-21T09:06:19.940Z,36.10
2019-03-21T09:07:19.845Z,36.00
2019-03-21T09:08:19.892Z,36.20
2019-03-21T09:09:19.819Z,35.70
2019-03-21T09:10:19.932Z,33.90
2019-03-21T09:11:19.834Z,34.30
2019-03-21T09:12:19.820Z,33.90
2019-03-21T09:13:19.770Z,32.80
2019-03-21T09:14:19.846Z,35.00
2019-03-21T09:15:19.769Z,37.90
2019-03-21T09:16:19.783Z,35.20
2019-03-21T09:17:19.721Z,31.90
2019-03-21T09:18:19.757Z,31.90
2019-03-21T09:19:19.707Z,39.80
2019-03-21T09:20:19.797Z,34.00
2019-03-21T09:21:20.196Z,39.70
2019-03-21T09:22:19.787Z,36.70
2019-03-21T09:23:19.665Z,35.80
2019-03-21T09:24:19.701Z,34.20
2019-03-21T09:25:19.632Z,34.40
2019-03-21T09:26:19.744Z,32.50
2019-03-21T09:27:19.623Z,33.20
2019-03-21T09:28:19.727Z,33.90
2019-03-21T09:29:19.593Z,32.20
2019-03-21T09:30:19.659Z,34.40
2019-03-21T09:31:19.569Z,37.30
2019-03-21T09:32:19.769Z,37.20
2019-03-21T09:33:19.550Z,37.30
2019-03-21T09:34:19.576Z,34.10
2019-03-21T09:35:19.545Z,34.90
2019-03-21T09:36:19.611Z,34.70
2019-03-21T09:37:19.521Z,37.20
2019-03-21T09:38:19.624Z,32.00
2019-03-21T09:39:19.489Z,31.90
2019-03-21T09:40:19.504Z,34.20
2019-03-21T09:41:19.510Z,34.60
2019-03-21T09:42:19.532Z,35.20
2019-03-21T09:43:19.450Z,30.60
2019-03-21T09:44:19.562Z,32.10
2019-03-21T09:45:19.428Z,30.70
2019-03-21T09:46:19.462Z,32.90
2019-03-21T09:47:19.459Z,34.40
2019-03-21T09:48:19.457Z,33.20
2019-03-21T09:49:19.381Z,30.30
2019-03-21T09:50:19.481Z,29.90
2019-03-21T09:51:30.299Z,31.30
2019-03-21T09:52:20.381Z,30.20
2019-03-21T09:53:19.391Z,31.80
2019-03-21T09:54:19.329Z,31.40
2019-03-21T09:55:19.422Z,33.20
2019-03-21T09:56:19.298Z,30.50
2019-03-21T09:57:19.340Z,30.70
2019-03-21T09:58:19.266Z,31.00
2019-03-21T09:59:19.330Z,30.70
2019-03-21T10:00:19.249Z,31.10
2019-03-21T10:01:19.343Z,33.70
2019-03-21T10:02:19.279Z,33.70
2019-03-21T10:03:19.261Z,33.90
2019-03-21T10:04:19.210Z,34.80
2019-03-21T10:05:19.283Z,34.10
2019-03-21T10:06:19.181Z,37.90
2019-03-21T10:07:19.319Z,36.00
2019-03-21T10:08:19.184Z,34.20
2019-03-21T10:09:19.195Z,33.20
2019-03-21T10:10:19.139Z,33.60
2019-03-21T10:11:19.221Z,35.30
2019-03-21T10:12:19.162Z,35.00
2019-03-21T10:13:19.231Z,32.40
2019-03-21T10:14:19.130Z,34.90
2019-03-21T10:15:19.133Z,34.80
2019-03-21T10:16:19.144Z,34.60
2019-03-21T10:17:19.191Z,33.30
2019-03-21T10:18:19.082Z,34.20
2019-03-21T10:19:19.220Z,35.40
2019-03-21T10:20:19.033Z,35.40
2019-03-21T10:21:19.084Z,39.40
2019-03-21T10:22:19.050Z,39.80
2019-03-21T10:23:19.117Z,37.10
2019-03-21T10:24:18.997Z,34.80
2019-03-21T10:25:19.020Z,30.60
2019-03-21T10:26:19.012Z,32.30
2019-03-21T10:27:19.015Z,32.30
2019-03-21T10:28:18.974Z,32.20
2019-03-21T10:29:19.057Z,30.90
2019-03-21T10:30:18.921Z,34.20
2019-03-21T10:31:18.934Z,34.10
2019-03-21T10:32:18.896Z,28.30
2019-03-21T10:33:18.963Z,30.70
2019-03-21T10:34:18.959Z,31.40
2019-03-21T10:35:18.965Z,29.70
2019-03-21T10:36:18.855Z,27.60
2019-03-21T10:37:18.881Z,29.40
2019-03-21T10:38:18.823Z,29.70
2019-03-21T10:39:20.047Z,27.90
2019-03-21T10:40:18.811Z,27.90
2019-03-21T10:41:18.912Z,28.20
2019-03-21T10:42:18.791Z,29.10
2019-03-21T10:43:18.820Z,30.50
2019-03-21T10:44:18.761Z,28.50
2019-03-21T10:45:18.880Z,28.30
2019-03-21T10:46:18.742Z,30.20
2019-03-21T10:47:18.868Z,29.20
2019-03-21T10:48:18.720Z,27.00
2019-03-21T10:49:18.795Z,28.70
2019-03-21T10:50:18.723Z,28.60
2019-03-21T10:52:19.794Z,30.60
2019-03-21T10:53:18.795Z,32.90
2019-03-21T10:54:18.650Z,32.90
2019-03-21T10:55:18.727Z,32.00
2019-03-21T10:56:18.627Z,31.90
2019-03-21T10:58:19.729Z,35.30
2019-03-21T10:59:18.639Z,32.60
2019-03-21T11:00:18.622Z,30.60
2019-03-21T11:01:18.652Z,28.30
2019-03-21T11:02:18.558Z,31.50
2019-03-21T11:03:18.667Z,31.40
2019-03-21T11:04:18.547Z,27.80
2019-03-21T11:05:18.611Z,24.10
2019-03-21T11:06:18.519Z,22.20
2019-03-21T11:07:18.574Z,21.10
2019-03-21T11:08:18.503Z,24.00
2019-03-21T11:09:18.606Z,24.40
2019-03-21T11:10:18.500Z,21.30
2019-03-21T11:11:18.499Z,24.40
2019-03-21T11:12:18.453Z,23.70
2019-03-21T11:13:18.518Z,27.60
2019-03-21T11:14:18.438Z,25.10
2019-03-21T11:15:18.575Z,23.90
2019-03-21T11:16:18.433Z,28.10
2019-03-21T11:17:18.462Z,27.10
2019-03-21T11:18:18.416Z,28.50
2019-03-21T11:19:18.487Z,25.20
2019-03-21T11:20:18.406Z,22.70
2019-03-21T11:21:18.502Z,26.60
2019-03-21T11:22:18.363Z,25.60
2019-03-21T11:23:18.364Z,24.00
2019-03-21T11:24:18.322Z,25.30
2019-03-21T11:25:18.389Z,24.30
2019-03-21T11:26:18.323Z,26.70
2019-03-21T11:27:18.423Z,27.50
2019-03-21T11:28:18.285Z,25.20
2019-03-21T11:29:18.328Z,30.80
2019-03-21T11:30:18.269Z,22.80
2019-03-21T11:31:18.381Z,32.30
2019-03-21T11:32:18.246Z,27.60
2019-03-21T11:33:18.254Z,25.70
2019-03-21T11:34:18.208Z,29.30
2019-03-21T11:35:18.265Z,23.60
2019-03-21T11:36:18.266Z,26.80
2019-03-21T11:37:18.320Z,27.20
2019-03-21T11:38:18.162Z,22.80
2019-03-21T11:39:18.285Z,27.60
2019-03-21T11:40:18.149Z,25.30
2019-03-21T11:41:18.199Z,26.00
2019-03-21T11:42:18.160Z,28.50
2019-03-21T11:43:18.218Z,29.30
2019-03-21T11:44:18.137Z,28.70
2019-03-21T11:45:18.134Z,29.40
2019-03-21T11:46:18.154Z,25.60
2019-03-21T11:47:18.133Z,24.50
2019-03-21T11:48:18.106Z,26.40
2019-03-21T11:49:18.174Z,27.00
2019-03-21T11:50:18.063Z,27.00
2019-03-21T11:51:18.094Z,37.80
2019-03-21T11:52:18.686Z,34.10
2019-03-21T11:53:18.085Z,30.30
2019-03-21T11:54:18.038Z,25.80
2019-03-21T11:55:18.090Z,27.30
2019-03-21T11:56:17.983Z,28.40
2019-03-21T11:57:18.098Z,29.50
2019-03-21T11:58:18.006Z,28.40
2019-03-21T11:59:18.047Z,25.10
2019-03-21T12:00:17.928Z,24.40
2019-03-21T12:01:18.038Z,26.10
2019-03-21T12:02:26.766Z,25.90
2019-03-21T12:03:18.896Z,24.20
2019-03-21T12:04:17.995Z,26.60
2019-03-21T12:05:17.880Z,27.30
2019-03-21T12:06:17.957Z,25.40
2019-03-21T12:07:17.869Z,26.80
2019-03-21T12:08:17.911Z,27.00
2019-03-21T12:09:17.815Z,23.60
2019-03-21T12:10:17.883Z,23.50
2019-03-21T12:11:17.796Z,27.60
2019-03-21T12:12:17.910Z,28.50
2019-03-21T12:13:17.838Z,27.30
2019-03-21T12:14:17.818Z,22.80
2019-03-21T12:15:17.775Z,23.50
2019-03-21T12:16:17.827Z,21.40
2019-03-21T12:17:17.728Z,28.60
2019-03-21T12:18:17.878Z,22.40
2019-03-21T12:19:17.742Z,23.50
2019-03-21T12:20:17.772Z,23.20
2019-03-21T12:21:17.686Z,24.10
2019-03-21T12:22:29.217Z,27.80
2019-03-21T12:23:18.692Z,25.10
2019-03-21T12:24:17.781Z,22.90
2019-03-21T12:25:17.644Z,24.20
2019-03-21T12:26:17.695Z,22.40
2019-03-21T12:27:17.656Z,25.40
2019-03-21T12:28:17.745Z,24.30
2019-03-21T12:29:17.617Z,23.00
2019-03-21T12:30:17.634Z,23.50
2019-03-21T12:31:17.587Z,25.50
2019-03-21T12:32:17.646Z,22.50
2019-03-21T12:33:17.596Z,24.40
2019-03-21T12:34:17.649Z,24.50
2019-03-21T12:35:17.606Z,24.20
2019-03-21T12:36:17.581Z,28.80
2019-03-21T12:37:17.531Z,29.30
2019-03-21T12:38:17.579Z,25.10
2019-03-21T12:39:17.518Z,23.90
2019-03-21T12:40:17.588Z,22.80
2019-03-21T12:41:17.499Z,22.30
2019-03-21T12:42:17.494Z,25.90
2019-03-21T12:43:17.522Z,22.80
2019-03-21T12:44:17.545Z,23.50
2019-03-21T12:45:17.433Z,23.70
2019-03-21T12:46:17.527Z,20.60
2019-03-21T12:47:17.422Z,19.90
2019-03-21T12:48:17.440Z,24.50
2019-03-21T12:49:17.438Z,22.50
2019-03-21T12:50:17.548Z,24.00
2019-03-21T12:51:17.365Z,20.50
2019-03-21T12:52:17.470Z,23.20
2019-03-21T12:53:17.340Z,22.10
2019-03-21T12:54:17.406Z,21.30
2019-03-21T12:55:17.327Z,21.00
2019-03-21T12:56:17.403Z,22.20
2019-03-21T12:57:17.331Z,22.60
2019-03-21T12:58:17.406Z,22.80
2019-03-21T12:59:17.323Z,24.00
2019-03-21T13:00:17.354Z,25.20
2019-03-21T13:01:17.307Z,20.70
2019-03-21T13:02:17.333Z,21.80
2019-03-21T13:03:17.257Z,20.80
2019-03-21T13:04:17.367Z,20.20
2019-03-21T13:05:17.210Z,20.30
2019-03-21T13:06:17.261Z,22.00
2019-03-21T13:07:17.464Z,20.40
2019-03-21T13:08:17.287Z,19.40
2019-03-21T13:09:17.190Z,18.90
2019-03-21T13:10:17.289Z,21.60
2019-03-21T13:11:17.149Z,22.70
2019-03-21T13:12:17.197Z,21.50